Time;durP1;ratioP1;P1;durP2;ratioP2;P2;SDS_P1;SDS_P2;PMS_P1;PMS_P2;Temp;Humidity;BMP_temperature;BMP_pressure;BME280_temperature;BME280_humidity;BME280_pressure;Samples;Min_cycle;Max_cycle;Signal;HPM_P1;HPM_P2
2023/07/12 00:00:23;;;;;;;;;;;;;;;25.08;48.06;99876.19;4844929;29;6873;-70
2023/07/12 00:02:49;;;;;;;;;;;;;;;25.12;48.46;99873.50;4840268;29;6990;-71
2023/07/12 00:05:16;;;;;;;;;;;;;;;25.14;48.50;99867.31;4858172;29;7208;-70
2023/07/12 00:07:45;;;;;;;;;;;;;;;25.12;48.73;99886.63;4861346;29;6982;-70
2023/07/12 00:10:19;;;;;;;;;;;;;;;24.94;49.62;99931.50;4859304;29;7000;-70
2023/07/12 00:12:45;;;;;;;;;;;;;;;24.66;49.76;99936.34;4856873;29;6772;-73
2023/07/12 00:15:16;;;;;;;;;;;;;;;24.31;50.85;99899.41;4846007;29;7226;-70
2023/07/12 00:17:42;;;;;;;;;;;;;;;24.03;51.89;99883.25;4858272;29;6960;-72
2023/07/12 00:20:21;;;;;;;;;;;;;;;23.75;52.43;99878.44;4855395;29;7021;-70
2023/07/12 00:22:46;;;;;;;;;;;;;;;23.50;53.71;99866.59;4837483;29;7283;-70
2023/07/12 00:25:14;;;;;;;;;;;;;;;23.28;54.42;99866.88;4859900;29;7045;-69
2023/07/12 00:27:39;;;;;;;;;;;;;;;23.09;55.30;99867.97;4858367;29;6785;-69
2023/07/12 00:30:29;;;;;;;;;;;;;;;22.95;55.48;99869.00;4859121;29;6773;-70
2023/07/12 00:32:57;;;;;;;;;;;;;;;22.85;56.30;99865.63;4843332;29;11301;-72
2023/07/12 00:35:26;;;;;;;;;;;;;;;22.79;56.19;99881.38;4841481;29;6809;-72
2023/07/12 00:37:54;;;;;;;;;;;;;;;22.73;56.94;99866.63;4856994;29;6858;-69
2023/07/12 00:40:53;;;;;;;;;;;;;;;22.69;56.95;99866.66;4865633;29;7310;-69
2023/07/12 00:43:41;;;;;;;;;;;;;;;22.65;57.13;99875.44;4840041;29;7647;-69
2023/07/12 00:46:28;;;;;;;;;;;;;;;22.59;57.26;99853.69;4839690;29;7197;-69
2023/07/12 00:48:54;;;;;;;;;;;;;;;22.54;57.63;99852.91;4841819;29;6918;-72
2023/07/12 00:51:19;;;;;;;;;;;;;;;22.51;58.02;99855.56;4838591;29;6824;-69
2023/07/12 00:53:45;;;;;;;;;;;;;;;22.46;58.03;99862.53;4844654;29;6999;-70
2023/07/12 00:56:11;;;;;;;;;;;;;;;22.40;58.13;99865.19;4827612;29;7208;-69
2023/07/12 00:58:45;;;;;;;;;;;;;;;22.34;58.26;99860.88;4845338;29;6864;-71
2023/07/12 01:01:13;;;;;;;;;;;;;;;22.30;58.15;99862.66;4848601;29;7030;-71
2023/07/12 01:03:42;;;;;;;;;;;;;;;22.26;58.79;99863.56;4856690;29;6848;-70
2023/07/12 01:06:11;;;;;;;;;;;;;;;22.23;58.87;99863.63;4826138;29;7139;-72
2023/07/12 01:08:41;;;;;;;;;;;;;;;22.24;58.92;99854.03;4827361;29;7165;-69
2023/07/12 01:11:10;;;;;;;;;;;;;;;22.27;58.96;99852.25;4843429;29;6994;-70
2023/07/12 01:13:40;;;;;;;;;;;;;;;22.31;59.34;99861.81;4844489;29;6872;-69
2023/07/12 01:16:05;;;;;;;;;;;;;;;22.34;59.29;99887.88;4842400;29;7271;-69
2023/07/12 01:18:31;;;;;;;;;;;;;;;22.39;60.14;99890.44;4842470;29;6832;-69
2023/07/12 01:21:13;;;;;;;;;;;;;;;22.42;59.47;99885.19;4860972;29;6933;-71
2023/07/12 01:23:40;;;;;;;;;;;;;;;22.45;59.99;99895.63;4840694;29;6849;-69
2023/07/12 01:26:23;;;;;;;;;;;;;;;22.47;59.93;99899.06;4857785;29;6785;-70
2023/07/12 01:28:56;;;;;;;;;;;;;;;22.48;60.14;99899.91;4844824;29;7026;-70
2023/07/12 01:31:24;;;;;;;;;;;;;;;22.51;60.32;99899.94;4850742;29;6953;-69
2023/07/12 01:33:50;;;;;;;;;;;;;;;22.50;60.13;99903.41;4841727;29;6804;-69
2023/07/12 01:36:16;;;;;;;;;;;;;;;;;;4841577;29;7232;-69
2023/07/12 01:38:41;;;;;;;;;;;;;;;22.46;60.10;99906.91;4839790;29;6965;-70
2023/07/12 01:41:08;;;;;;;;;;;;;;;22.45;60.39;99915.63;4858105;29;6932;-72
2023/07/12 01:43:33;;;;;;;;;;;;;;;22.44;60.35;99916.50;4845074;29;6997;-71
2023/07/12 01:45:59;;;;;;;;;;;;;;;22.43;60.52;99926.06;4841115;29;6784;-69
2023/07/12 01:48:24;;;;;;;;;;;;;;;22.45;60.70;99936.50;4839731;29;6777;-69
2023/07/12 01:50:50;;;;;;;;;;;;;;;22.46;60.51;99930.41;4841206;29;6773;-71
2023/07/12 01:53:16;;;;;;;;;;;;;;;22.49;60.77;99938.22;4844954;29;6780;-68
2023/07/12 01:55:42;;;;;;;;;;;;;;;22.50;60.64;99939.09;4850195;29;7376;-73
2023/07/12 01:58:08;;;;;;;;;;;;;;;22.52;61.01;99958.25;4862856;29;6869;-69
2023/07/12 02:00:34;;;;;;;;;;;;;;;22.53;61.38;99966.06;4834963;29;7071;-69
2023/07/12 02:02:59;;;;;;;;;;;;;;;22.54;61.03;99965.19;4839483;29;6960;-71
2023/07/12 02:05:25;;;;;;;;;;;;;;;22.57;61.68;99962.53;4836640;29;6936;-70
2023/07/12 02:07:52;;;;;;;;;;;;;;;22.58;61.38;99959.03;4856222;29;6769;-69
2023/07/12 02:10:20;;;;;;;;;;;;;;;22.59;61.24;99957.31;4844695;29;6873;-69
2023/07/12 02:12:46;;;;;;;;;;;;;;;22.58;61.06;99961.66;4844899;29;6797;-69
2023/07/12 02:15:13;;;;;;;;;;;;;;;22.59;61.73;99983.44;4840567;29;7001;-69
2023/07/12 02:17:39;;;;;;;;;;;;;;;22.57;61.35;99996.47;4849712;29;6970;-69
2023/07/12 02:20:06;;;;;;;;;;;;;;;22.55;60.64;99999.97;4845007;29;6840;-72
2023/07/12 02:22:33;;;;;;;;;;;;;;;22.49;60.38;100032.22;4845506;29;7274;-70
2023/07/12 02:24:58;;;;;;;;;;;;;;;22.39;60.23;100043.59;4841550;29;6785;-70
2023/07/12 02:27:24;;;;;;;;;;;;;;;22.28;60.24;100028.00;4867144;29;6785;-69
2023/07/12 02:29:50;;;;;;;;;;;;;;;22.11;60.07;100036.78;4844673;29;6947;-71
2023/07/12 02:32:16;;;;;;;;;;;;;;;21.95;59.60;100054.28;4842253;29;6994;-70
2023/07/12 02:34:41;;;;;;;;;;;;;;;21.76;59.61;100056.97;4843747;29;6878;-70
2023/07/12 02:37:08;;;;;;;;;;;;;;;21.62;59.93;100030.00;4842205;29;6784;-71
2023/07/12 02:39:33;;;;;;;;;;;;;;;21.49;59.80;100043.09;4840129;29;6804;-70
2023/07/12 02:41:59;;;;;;;;;;;;;;;21.40;60.18;100032.69;4855371;29;8563;-69
2023/07/12 02:44:25;;;;;;;;;;;;;;;21.33;60.03;100036.19;4842590;29;6951;-69
2023/07/12 02:46:50;;;;;;;;;;;;;;;21.26;59.99;100050.97;4824795;29;6927;-69
2023/07/12 02:49:16;;;;;;;;;;;;;;;21.20;60.34;100072.69;4844191;29;8272;-72
2023/07/12 02:51:41;;;;;;;;;;;;;;;21.11;60.21;100103.13;4843668;29;6785;-70
2023/07/12 02:54:07;;;;;;;;;;;;;;;20.99;60.84;100064.91;4825637;29;6847;-72
2023/07/12 02:56:32;;;;;;;;;;;;;;;20.89;60.40;100035.38;4840723;29;6856;-72
2023/07/12 02:58:58;;;;;;;;;;;;;;;20.77;60.79;100029.28;4839931;29;7176;-72
2023/07/12 03:01:24;;;;;;;;;;;;;;;20.66;60.97;100013.63;4844564;29;6792;-72
2023/07/12 03:03:52;;;;;;;;;;;;;;;20.57;61.16;100008.44;4826810;29;7286;-72
2023/07/12 03:06:17;;;;;;;;;;;;;;;20.50;61.24;100001.50;4861825;29;6773;-71
2023/07/12 03:08:43;;;;;;;;;;;;;;;20.45;61.33;100004.09;4841255;29;8524;-72
2023/07/12 03:11:09;;;;;;;;;;;;;;;20.42;61.77;100000.63;4858646;29;7046;-71
2023/07/12 03:13:34;;;;;;;;;;;;;;;20.40;61.89;99998.00;4838699;29;6951;-71
2023/07/12 03:16:04;;;;;;;;;;;;;;;20.39;62.30;99991.94;4844971;29;6844;-71
2023/07/12 03:18:30;;;;;;;;;;;;;;;20.40;61.83;99992.81;4848848;29;7251;-71
2023/07/12 03:21:00;;;;;;;;;;;;;;;20.43;61.98;99995.44;4843789;29;7079;-71
2023/07/12 03:23:26;;;;;;;;;;;;;;;20.46;62.42;99992.81;4856212;29;6789;-71
2023/07/12 03:25:51;;;;;;;;;;;;;;;20.47;62.18;99997.16;4841788;29;6841;-69
2023/07/12 03:28:17;;;;;;;;;;;;;;;20.46;62.33;99985.00;4837624;29;6769;-71
2023/07/12 03:30:42;;;;;;;;;;;;;;;20.46;62.49;99963.31;4841504;29;6839;-68
2023/07/12 03:33:08;;;;;;;;;;;;;;;20.47;62.79;99960.72;4838413;29;6764;-69
2023/07/12 03:35:34;;;;;;;;;;;;;;;20.50;62.41;99967.66;4841365;29;6835;-72
2023/07/12 03:37:59;;;;;;;;;;;;;;;20.51;62.48;99987.63;4839772;29;6809;-70
2023/07/12 03:40:25;;;;;;;;;;;;;;;20.51;62.66;99985.00;4844055;29;8169;-70
2023/07/12 03:42:50;;;;;;;;;;;;;;;20.50;63.56;99980.69;4845507;29;6871;-71
2023/07/12 03:45:16;;;;;;;;;;;;;;;20.50;63.22;99991.09;4839309;29;7127;-68
2023/07/12 03:47:41;;;;;;;;;;;;;;;20.49;63.23;99999.75;4845993;29;6816;-71
2023/07/12 03:50:07;;;;;;;;;;;;;;;20.50;62.75;99996.28;4843168;29;6772;-68
2023/07/12 03:52:32;;;;;;;;;;;;;;;20.51;62.92;99982.41;4856065;29;6772;-70
2023/07/12 03:54:58;;;;;;;;;;;;;;;20.52;63.26;99978.94;4836784;29;6928;-70
2023/07/12 03:57:23;;;;;;;;;;;;;;;20.54;63.09;99988.50;4837029;29;7013;-68
2023/07/12 03:59:49;;;;;;;;;;;;;;;20.58;63.28;99993.69;4835958;29;6784;-68
2023/07/12 04:02:15;;;;;;;;;;;;;;;20.59;63.03;99990.22;4838095;29;6921;-69
2023/07/12 04:04:40;;;;;;;;;;;;;;;20.61;62.87;99999.75;4841433;29;6769;-70
2023/07/12 04:07:06;;;;;;;;;;;;;;;20.62;62.94;99991.09;4843867;29;7212;-70
2023/07/12 04:09:31;;;;;;;;;;;;;;;20.63;63.07;99998.03;4854434;29;6832;-69
2023/07/12 04:11:57;;;;;;;;;;;;;;;20.64;63.13;100009.31;4854916;29;6980;-70
2023/07/12 04:14:23;;;;;;;;;;;;;;;20.64;63.08;100004.97;4842107;29;6824;-69
2023/07/12 04:16:48;;;;;;;;;;;;;;;20.67;62.64;100009.31;4845727;29;7170;-71
2023/07/12 04:19:14;;;;;;;;;;;;;;;20.70;63.00;100013.66;4840919;29;6776;-68
2023/07/12 04:21:39;;;;;;;;;;;;;;;20.74;63.04;100015.38;4845971;29;6761;-71
2023/07/12 04:24:05;;;;;;;;;;;;;;;20.78;62.96;100015.38;4844118;29;6991;-68
2023/07/12 04:26:31;;;;;;;;;;;;;;;20.83;63.13;100014.56;4841471;29;6778;-71
2023/07/12 04:28:56;;;;;;;;;;;;;;;20.86;62.79;100028.44;4841289;29;6773;-68
2023/07/12 04:31:22;;;;;;;;;;;;;;;20.90;62.63;100019.75;4857464;29;6942;-69
2023/07/12 04:33:49;;;;;;;;;;;;;;;20.93;62.40;100019.75;4838498;29;8159;-68
2023/07/12 04:36:17;;;;;;;;;;;;;;;20.97;62.39;100019.75;4864996;29;6913;-69
2023/07/12 04:38:43;;;;;;;;;;;;;;;20.99;62.67;100029.28;4864552;29;7834;-71
2023/07/12 04:41:09;;;;;;;;;;;;;;;21.02;62.51;100020.59;4844088;29;6809;-69
2023/07/12 04:43:34;;;;;;;;;;;;;;;21.02;62.36;100012.78;4840664;29;6949;-72
2023/07/12 04:46:00;;;;;;;;;;;;;;;21.04;61.94;100024.94;4843731;29;6806;-68
2023/07/12 04:48:26;;;;;;;;;;;;;;;21.06;62.16;100035.38;4842746;29;7363;-68
2023/07/12 04:50:54;;;;;;;;;;;;;;;21.08;61.97;100034.47;4823905;29;6968;-70
2023/07/12 04:53:21;;;;;;;;;;;;;;;21.08;62.27;100036.25;4865943;29;6797;-70
2023/07/12 04:55:50;;;;;;;;;;;;;;;21.09;61.86;100045.78;4856822;29;6988;-68
2023/07/12 04:58:16;;;;;;;;;;;;;;;21.07;61.89;100040.56;4843391;29;6812;-70
2023/07/12 05:00:43;;;;;;;;;;;;;;;21.05;61.78;100042.31;4846953;29;6780;-72
2023/07/12 05:03:09;;;;;;;;;;;;;;;21.02;62.03;100041.44;4855063;29;6917;-69
2023/07/12 05:05:37;;;;;;;;;;;;;;;21.01;61.95;100045.81;4854883;29;6816;-67
2023/07/12 05:08:04;;;;;;;;;;;;;;;20.99;62.27;100050.13;4862296;29;6805;-69
2023/07/12 05:10:30;;;;;;;;;;;;;;;20.98;62.16;100060.56;4840874;29;6805;-68
2023/07/12 05:12:55;;;;;;;;;;;;;;;20.98;61.94;100065.78;4853298;29;7033;-72
2023/07/12 05:15:21;;;;;;;;;;;;;;;20.98;62.23;100076.19;4843641;29;7026;-72
2023/07/12 05:17:46;;;;;;;;;;;;;;;20.97;61.95;100077.06;4842736;29;10325;-72
2023/07/12 05:20:13;;;;;;;;;;;;;;;20.95;62.02;100071.84;4858787;29;6768;-68
2023/07/12 05:22:39;;;;;;;;;;;;;;;20.92;62.19;100082.28;4842728;29;6925;-69
2023/07/12 05:25:05;;;;;;;;;;;;;;;20.91;62.14;100081.38;4852697;29;8364;-70
2023/07/12 05:27:30;;;;;;;;;;;;;;;20.92;62.13;100096.16;4839603;29;6918;-69
2023/07/12 05:29:56;;;;;;;;;;;;;;;20.95;62.67;100098.75;4845944;29;6860;-69
2023/07/12 05:32:21;;;;;;;;;;;;;;;21.02;62.65;100101.34;4841255;29;6772;-71
2023/07/12 05:34:47;;;;;;;;;;;;;;;21.08;62.82;100099.63;4837880;29;6757;-71
2023/07/12 05:37:13;;;;;;;;;;;;;;;21.15;62.63;100110.03;4841708;29;6788;-71
2023/07/12 05:39:39;;;;;;;;;;;;;;;21.20;62.72;100114.38;4835733;29;6777;-71
2023/07/12 05:42:04;;;;;;;;;;;;;;;21.24;62.52;100110.03;4848634;29;6773;-71
2023/07/12 05:44:30;;;;;;;;;;;;;;;21.29;62.49;100110.03;4839510;29;7255;-71
2023/07/12 05:46:56;;;;;;;;;;;;;;;21.34;62.45;100121.31;4842307;29;6848;-72
2023/07/12 05:49:22;;;;;;;;;;;;;;;21.41;62.79;100122.19;4844494;29;7328;-71
2023/07/12 05:51:48;;;;;;;;;;;;;;;21.53;62.87;100121.28;4845695;29;6841;-71
2023/07/12 05:54:15;;;;;;;;;;;;;;;21.70;63.88;100127.38;4857806;29;7048;-71
2023/07/12 05:56:40;;;;;;;;;;;;;;;22.00;63.77;100122.09;4846603;29;6769;-71
2023/07/12 05:59:06;;;;;;;;;;;;;;;22.26;63.69;100119.38;4858263;29;6937;-71
2023/07/12 06:01:31;;;;;;;;;;;;;;;22.47;63.12;100117.50;4843846;29;6925;-71
2023/07/12 06:03:57;;;;;;;;;;;;;;;22.67;62.62;100124.38;4859593;29;6828;-72
2023/07/12 06:06:23;;;;;;;;;;;;;;;22.84;62.03;100132.09;4827611;29;8602;-71
2023/07/12 06:08:48;;;;;;;;;;;;;;;22.99;62.06;100139.84;4846224;29;6764;-72
2023/07/12 06:11:14;;;;;;;;;;;;;;;23.10;61.61;100134.53;4845507;29;6776;-72
2023/07/12 06:13:39;;;;;;;;;;;;;;;23.22;60.66;100143.16;4858144;29;7279;-71
2023/07/12 06:16:05;;;;;;;;;;;;;;;23.29;60.50;100139.66;4830214;29;7016;-71
2023/07/12 06:18:31;;;;;;;;;;;;;;;23.33;60.43;100138.72;4844398;29;6769;-71
2023/07/12 06:20:59;;;;;;;;;;;;;;;23.38;59.54;100144.78;4843119;29;6915;-71
2023/07/12 06:23:26;;;;;;;;;;;;;;;23.43;59.21;100143.00;4828229;29;7111;-71
2023/07/12 06:25:55;;;;;;;;;;;;;;;23.47;59.00;100148.19;4846085;29;6757;-72
2023/07/12 06:28:20;;;;;;;;;;;;;;;23.43;58.62;100150.84;4858296;29;6781;-71
2023/07/12 06:30:46;;;;;;;;;;;;;;;23.49;59.24;100162.97;4860060;29;7151;-71
2023/07/12 06:33:11;;;;;;;;;;;;;;;23.61;58.89;100150.66;4841725;29;6784;-71
2023/07/12 06:35:37;;;;;;;;;;;;;;;23.69;58.82;100173.25;4860815;29;6847;-72
2023/07/12 06:38:02;;;;;;;;;;;;;;;23.75;57.92;100168.84;4844798;29;6951;-71
2023/07/12 06:40:28;;;;;;;;;;;;;;;23.77;57.44;100172.31;4858417;29;7210;-71
2023/07/12 06:42:53;;;;;;;;;;;;;;;23.74;57.43;100177.56;4845054;29;8188;-72
2023/07/12 06:45:19;;;;;;;;;;;;;;;23.68;56.31;100181.13;4843874;29;6749;-72
2023/07/12 06:47:44;;;;;;;;;;;;;;;23.61;56.57;100182.94;4862127;29;6788;-72
2023/07/12 06:50:10;;;;;;;;;;;;;;;23.55;56.64;100178.63;4844643;29;6828;-72
2023/07/12 06:52:35;;;;;;;;;;;;;;;23.57;57.09;100191.69;4867143;29;6975;-72
2023/07/12 06:55:01;;;;;;;;;;;;;;;23.61;56.66;100182.94;4842665;29;6779;-72
2023/07/12 06:57:26;;;;;;;;;;;;;;;23.64;56.09;100182.03;4846777;29;7099;-72
2023/07/12 06:59:52;;;;;;;;;;;;;;;23.64;56.62;100177.66;4839708;29;6800;-72
2023/07/12 07:02:18;;;;;;;;;;;;;;;23.68;56.05;100184.63;4826009;29;8254;-72
2023/07/12 07:04:44;;;;;;;;;;;;;;;23.75;56.03;100187.16;4847260;29;6789;-72
2023/07/12 07:07:09;;;;;;;;;;;;;;;23.83;56.11;100182.72;4840900;29;6769;-72
2023/07/12 07:09:38;;;;;;;;;;;;;;;23.94;55.75;100185.22;4842966;29;6772;-70
2023/07/12 07:12:05;;;;;;;;;;;;;;;23.94;55.52;100188.69;4840686;29;7128;-70
2023/07/12 07:14:30;;;;;;;;;;;;;;;23.90;55.53;100188.75;4840430;29;8058;-73
2023/07/12 07:16:56;;;;;;;;;;;;;;;24.01;56.13;100192.13;4829855;29;7206;-73
2023/07/12 07:19:22;;;;;;;;;;;;;;;24.23;55.95;100190.13;4857811;29;7283;-70
2023/07/12 07:21:48;;;;;;;;;;;;;;;24.55;55.92;100185.38;4824825;29;7064;-71
2023/07/12 07:24:14;;;;;;;;;;;;;;;24.88;55.61;100196.31;4821408;29;6803;-71
2023/07/12 07:26:39;;;;;;;;;;;;;;;25.14;54.96;100194.19;4845428;29;7168;-71
2023/07/12 07:29:05;;;;;;;;;;;;;;;25.37;53.62;100197.28;4826127;29;7139;-71
2023/07/12 07:31:31;;;;;;;;;;;;;;;25.55;52.85;100197.91;4843155;29;7841;-71
2023/07/12 07:33:56;;;;;;;;;;;;;;;25.58;51.97;100194.38;4840386;29;6772;-71
2023/07/12 07:36:22;;;;;;;;;;;;;;;25.66;51.94;100200.34;4841494;29;6748;-71
2023/07/12 07:38:48;;;;;;;;;;;;;;;25.92;52.00;100213.00;4843269;29;6851;-71
2023/07/12 07:41:17;;;;;;;;;;;;;;;26.29;51.83;100200.06;4843331;29;7195;-71
2023/07/12 07:43:44;;;;;;;;;;;;;;;26.65;50.74;100204.56;4823548;29;7396;-71
2023/07/12 07:46:11;;;;;;;;;;;;;;;27.02;49.94;100212.50;4843248;29;7061;-72
2023/07/12 07:48:37;;;;;;;;;;;;;;;27.28;49.01;100203.13;4844261;29;6852;-71
2023/07/12 07:51:02;;;;;;;;;;;;;;;27.31;47.65;100210.94;4841028;29;6769;-72
2023/07/12 07:53:28;;;;;;;;;;;;;;;27.21;46.79;100213.84;4841718;29;7197;-71
2023/07/12 07:55:53;;;;;;;;;;;;;;;26.98;46.66;100205.59;4842036;29;6880;-72
2023/07/12 07:58:21;;;;;;;;;;;;;;;26.73;46.41;100213.16;4843751;29;6844;-72
2023/07/12 08:00:47;;;;;;;;;;;;;;;26.56;46.61;100224.03;4820875;29;6957;-72
2023/07/12 08:03:12;;;;;;;;;;;;;;;26.47;46.76;100218.06;4839599;29;7248;-72
2023/07/12 08:05:38;;;;;;;;;;;;;;;26.43;46.53;100213.78;4841384;29;7119;-72
2023/07/12 08:08:05;;;;;;;;;;;;;;;26.48;47.59;100201.41;4839791;29;6975;-72
2023/07/12 08:10:32;;;;;;;;;;;;;;;26.81;47.96;100197.19;4844379;29;6800;-72
2023/07/12 08:12:58;;;;;;;;;;;;;;;27.08;46.76;100205.38;4839426;29;7045;-72
2023/07/12 08:15:25;;;;;;;;;;;;;;;27.21;46.00;100198.91;4843211;29;6924;-72
2023/07/12 08:17:51;;;;;;;;;;;;;;;27.16;45.44;100195.53;4839048;29;6978;-72
2023/07/12 08:20:17;;;;;;;;;;;;;;;27.18;45.73;100199.00;4858480;29;7013;-72
2023/07/12 08:22:43;;;;;;;;;;;;;;;27.30;45.44;100211.84;4842852;29;6772;-72
2023/07/12 08:25:09;;;;;;;;;;;;;;;27.58;45.75;100198.00;4854755;29;7669;-72
2023/07/12 08:27:35;;;;;;;;;;;;;;;27.86;44.93;100199.91;4824474;29;7215;-72
2023/07/12 08:30:01;;;;;;;;;;;;;;;28.01;44.33;100203.03;4842304;29;6761;-72
2023/07/12 08:32:28;;;;;;;;;;;;;;;28.24;44.51;100204.19;4843394;29;6785;-72
2023/07/12 08:34:57;;;;;;;;;;;;;;;28.60;44.13;100203.13;4840682;29;7091;-72
2023/07/12 08:37:24;;;;;;;;;;;;;;;29.03;43.62;100200.94;4857838;29;6784;-72
2023/07/12 08:39:49;;;;;;;;;;;;;;;29.50;41.75;100201.19;4860745;29;7344;-72
2023/07/12 08:42:20;;;;;;;;;;;;;;;29.60;40.64;100212.31;4844649;29;6843;-72
2023/07/12 08:44:46;;;;;;;;;;;;;;;29.33;40.69;100211.41;4847717;29;6776;-72
2023/07/12 08:47:23;;;;;;;;;;;;;;;28.96;40.32;100203.78;4841299;29;6781;-72
2023/07/12 08:49:49;;;;;;;;;;;;;;;29.07;40.96;100210.47;4843416;29;7211;-71
2023/07/12 08:52:22;;;;;;;;;;;;;;;29.51;41.16;100204.69;4858882;29;6801;-71
2023/07/12 08:54:49;;;;;;;;;;;;;;;29.96;39.94;100199.59;4843037;29;6813;-71
2023/07/12 08:57:19;;;;;;;;;;;;;;;30.17;39.21;100196.19;4842529;29;6769;-71
2023/07/12 08:59:56;;;;;;;;;;;;;;;30.39;38.22;100183.97;4828516;29;7071;-72
2023/07/12 09:02:24;;;;;;;;;;;;;;;30.67;38.34;100191.72;4843712;29;7013;-72
2023/07/12 09:04:51;;;;;;;;;;;;;;;31.00;37.43;100187.75;4841384;29;6955;-72
2023/07/12 09:07:31;;;;;;;;;;;;;;;31.34;37.12;100190.81;4831909;29;7254;-71
2023/07/12 09:09:59;;;;;;;;;;;;;;;31.62;36.75;100193.16;4842513;29;7012;-72
2023/07/12 09:12:35;;;;;;;;;;;;;;;31.96;36.08;100190.84;4843893;29;6853;-72
2023/07/12 09:15:11;;;;;;;;;;;;;;;32.23;35.67;100196.66;4853189;29;6817;-72
2023/07/12 09:17:44;;;;;;;;;;;;;;;32.42;35.30;100193.19;4841472;29;6953;-72
2023/07/12 09:20:30;;;;;;;;;;;;;;;32.47;34.59;100185.88;4848425;29;6832;-71
2023/07/12 09:22:56;;;;;;;;;;;;;;;32.42;34.87;100187.88;4849619;29;6872;-71
2023/07/12 09:25:25;;;;;;;;;;;;;;;32.44;34.22;100188.66;4848356;29;7135;-71
2023/07/12 09:27:51;;;;;;;;;;;;;;;32.55;33.50;100197.00;4854703;29;7255;-71
2023/07/12 09:30:22;;;;;;;;;;;;;;;32.31;33.23;100192.78;4851230;29;7310;-71
2023/07/12 09:32:49;;;;;;;;;;;;;;;32.00;33.15;100203.00;4852112;29;6994;-71
2023/07/12 09:35:24;;;;;;;;;;;;;;;31.59;33.30;100196.78;4866093;29;6793;-71
2023/07/12 09:37:59;;;;;;;;;;;;;;;31.69;33.88;100199.03;4848596;29;6813;-71
2023/07/12 09:40:28;;;;;;;;;;;;;;;32.13;33.60;100195.34;4847828;29;6813;-71
2023/07/12 09:42:57;;;;;;;;;;;;;;;32.45;33.21;100185.09;4830058;29;7275;-71
2023/07/12 09:45:25;;;;;;;;;;;;;;;32.71;32.95;100187.44;4863403;29;6800;-71
2023/07/12 09:48:01;;;;;;;;;;;;;;;33.02;31.63;100202.72;4848936;29;8497;-71
2023/07/12 09:50:43;;;;;;;;;;;;;;;33.24;31.42;100194.53;4850555;29;6873;-71
2023/07/12 09:53:22;;;;;;;;;;;;;;;33.35;30.61;100198.44;4865771;29;7100;-71
2023/07/12 09:55:55;;;;;;;;;;;;;;;32.98;31.26;100203.81;4870724;29;6788;-71
2023/07/12 09:58:29;;;;;;;;;;;;;;;32.87;31.44;100196.34;4845607;29;7342;-71
2023/07/12 10:01:16;;;;;;;;;;;;;;;32.78;31.56;100204.75;4843730;29;7540;-71
2023/07/12 10:03:48;;;;;;;;;;;;;;;32.75;31.77;100196.94;4860255;29;6804;-71
2023/07/12 10:06:40;;;;;;;;;;;;;;;33.06;32.11;100195.47;4846439;29;6765;-71
2023/07/12 10:09:20;;;;;;;;;;;;;;;33.53;31.40;100188.72;4849619;29;7049;-71
2023/07/12 10:11:55;;;;;;;;;;;;;;;33.92;31.07;100198.19;4849548;29;6962;-71
2023/07/12 10:14:30;;;;;;;;;;;;;;;34.25;30.66;100201.78;4847718;29;6789;-72
2023/07/12 10:16:56;;;;;;;;;;;;;;;34.36;29.81;100182.56;4861184;29;6801;-71
2023/07/12 10:19:23;;;;;;;;;;;;;;;34.10;30.01;100197.31;4864648;29;6768;-71
2023/07/12 10:21:51;;;;;;;;;;;;;;;33.75;29.45;100192.91;4862686;29;6780;-70
2023/07/12 10:24:19;;;;;;;;;;;;;;;33.29;30.42;100204.09;4863529;29;6789;-71
2023/07/12 10:26:44;;;;;;;;;;;;;;;33.23;30.90;100202.59;4848258;29;6819;-71
2023/07/12 10:29:40;;;;;;;;;;;;;;;33.14;30.92;100198.59;4847566;29;6917;-71
2023/07/12 10:32:08;;;;;;;;;;;;;;;33.14;30.49;100203.06;4856874;29;7011;-71
2023/07/12 10:34:44;;;;;;;;;;;;;;;32.89;30.66;100204.25;4827930;29;7057;-71
2023/07/12 10:37:16;;;;;;;;;;;;;;;32.62;30.82;100205.50;4849019;29;6859;-69
2023/07/12 10:39:42;;;;;;;;;;;;;;;32.44;30.60;100201.91;4863732;29;6773;-71
2023/07/12 10:42:25;;;;;;;;;;;;;;;32.31;30.76;100208.69;4845440;29;6773;-70
2023/07/12 10:44:53;;;;;;;;;;;;;;;32.50;30.49;100198.97;4859590;29;7047;-71
2023/07/12 10:47:21;;;;;;;;;;;;;;;32.95;30.13;100198.69;4841790;29;6987;-70
2023/07/12 10:50:01;;;;;;;;;;;;;;;33.32;29.58;100207.44;4862328;29;6797;-71
2023/07/12 10:52:33;;;;;;;;;;;;;;;33.64;29.44;100199.66;4860794;29;6816;-70
2023/07/12 10:55:07;;;;;;;;;;;;;;;34.04;28.91;100191.41;4844833;29;6792;-70
2023/07/12 10:57:48;;;;;;;;;;;;;;;34.57;28.43;100196.50;4843816;29;6808;-70
2023/07/12 11:00:14;;;;;;;;;;;;;;;34.99;28.15;100191.47;4861560;29;7476;-71
2023/07/12 11:02:45;;;;;;;;;;;;;;;35.33;27.27;100187.78;4847829;29;6772;-71
2023/07/12 11:05:36;;;;;;;;;;;;;;;35.49;27.69;100183.25;4845892;29;7250;-70
2023/07/12 11:08:03;;;;;;;;;;;;;;;35.81;26.96;100183.13;4864431;29;7088;-71
2023/07/12 11:10:28;;;;;;;;;;;;;;;36.03;26.74;100192.47;4845585;29;6853;-68
2023/07/12 11:13:09;;;;;;;;;;;;;;;36.16;26.21;100187.22;4857742;29;6761;-70
2023/07/12 11:15:50;;;;;;;;;;;;;;;36.24;25.95;100194.75;4839583;29;6801;-68
2023/07/12 11:18:25;;;;;;;;;;;;;;;36.52;25.97;100198.31;4845632;29;6948;-68
2023/07/12 11:21:24;;;;;;;;;;;;;;;36.62;25.77;100202.13;4845592;29;8427;-70
2023/07/12 11:23:49;;;;;;;;;;;;;;;35.93;25.94;100205.50;4828645;29;6813;-68
2023/07/12 11:26:26;;;;;;;;;;;;;;;35.30;26.74;100210.16;4841974;29;6848;-68
2023/07/12 11:28:53;;;;;;;;;;;;;;;35.23;26.30;100208.81;4839618;29;7381;-72
2023/07/12 11:31:29;;;;;;;;;;;;;;;35.27;25.84;100208.53;4860501;29;6844;-71
2023/07/12 11:34:01;;;;;;;;;;;;;;;35.07;26.46;100199.03;4840084;29;6981;-71
2023/07/12 11:36:34;;;;;;;;;;;;;;;35.09;25.56;100196.31;4863308;29;7309;-70
2023/07/12 11:39:00;;;;;;;;;;;;;;;35.16;25.59;100209.16;4855342;29;6800;-68
2023/07/12 11:41:27;;;;;;;;;;;;;;;35.25;25.07;100209.56;4839827;29;6781;-69
2023/07/12 11:44:12;;;;;;;;;;;;;;;35.38;25.32;100196.38;4859072;29;6793;-70
2023/07/12 11:46:39;;;;;;;;;;;;;;;35.39;25.67;100198.09;4863140;29;6941;-68
2023/07/12 11:49:13;;;;;;;;;;;;;;;35.44;24.49;100188.88;4842787;29;6953;-69
2023/07/12 11:51:42;;;;;;;;;;;;;;;35.65;25.20;100191.22;4841936;29;6842;-68
2023/07/12 11:54:20;;;;;;;;;;;;;;;35.99;25.44;100199.81;4841348;29;6924;-69
2023/07/12 11:56:47;;;;;;;;;;;;;;;36.37;25.47;100205.50;4851600;29;7267;-71
2023/07/12 11:59:23;;;;;;;;;;;;;;;36.77;25.06;100196.72;4856654;29;6905;-69
2023/07/12 12:01:50;;;;;;;;;;;;;;;37.14;24.21;100194.31;4836290;29;6785;-68
2023/07/12 12:04:22;;;;;;;;;;;;;;;36.91;23.31;100203.81;4843894;29;6945;-72
2023/07/12 12:06:52;;;;;;;;;;;;;;;36.01;23.71;100210.34;4835106;29;6949;-71
2023/07/12 12:09:25;;;;;;;;;;;;;;;35.44;24.49;100211.97;4860692;29;7123;-72
2023/07/12 12:11:54;;;;;;;;;;;;;;;34.95;24.56;100203.22;4842694;29;8316;-69
2023/07/12 12:14:25;;;;;;;;;;;;;;;34.78;25.02;100214.84;4845549;29;7319;-71
2023/07/12 12:16:54;;;;;;;;;;;;;;;35.10;25.47;100213.97;4829333;29;7222;-68
2023/07/12 12:19:21;;;;;;;;;;;;;;;35.67;24.54;100210.63;4856949;29;6996;-70
2023/07/12 12:21:49;;;;;;;;;;;;;;;36.10;25.44;100208.97;4843542;29;6882;-68
2023/07/12 12:24:18;;;;;;;;;;;;;;;36.40;24.57;100211.47;4841563;29;6789;-68
2023/07/12 12:26:45;;;;;;;;;;;;;;;36.55;24.19;100206.13;4858459;29;6777;-66
2023/07/12 12:29:16;;;;;;;;;;;;;;;36.40;24.07;100207.97;4856281;29;7060;-68
2023/07/12 12:32:15;;;;;;;;;;;;;;;36.12;24.24;100205.25;4825545;29;6937;-70
2023/07/12 12:34:47;;;;;;;;;;;;;;;35.69;24.09;100210.53;4845981;29;6817;-70
2023/07/12 12:37:18;;;;;;;;;;;;;;;35.17;23.63;100215.34;4825776;29;7103;-68
2023/07/12 12:39:57;;;;;;;;;;;;;;;34.99;24.20;100211.91;4843034;29;7458;-70
2023/07/12 12:42:25;;;;;;;;;;;;;;;35.09;23.54;100204.28;4825922;29;6996;-68
2023/07/12 12:44:51;;;;;;;;;;;;;;;35.08;24.30;100194.59;4844007;29;6951;-68
2023/07/12 12:47:21;;;;;;;;;;;;;;;35.41;24.21;100199.72;4840078;29;6827;-68
2023/07/12 12:49:46;;;;;;;;;;;;;;;35.72;24.16;100205.00;4839323;29;7024;-67
2023/07/12 12:52:33;;;;;;;;;;;;;;;35.73;24.08;100196.06;4838358;29;6799;-69
2023/07/12 12:55:02;;;;;;;;;;;;;;;35.82;22.84;100194.66;4838881;29;7251;-68
2023/07/12 12:57:29;;;;;;;;;;;;;;;35.40;23.88;100194.47;4843837;29;6827;-68